createdAt,value
2019-01-02T00:01:15.498Z,95050.76
2019-01-02T00:03:42.988Z,95057.25
2019-01-02T00:06:10.451Z,95056.89
2019-01-02T00:08:37.991Z,95061.49
2019-01-02T00:11:05.496Z,95060.56
2019-01-02T00:13:33.610Z,95061.33
2019-01-02T00:16:01.113Z,95068.73
2019-01-02T00:18:28.761Z,95063.59
2019-01-02T00:20:56.280Z,95065.12
2019-01-02T00:23:23.979Z,95070.64
2019-01-02T00:25:51.462Z,95065.72
2019-01-02T00:28:19.378Z,95059.27
2019-01-02T00:30:46.856Z,95063.83
2019-01-02T00:33:14.530Z,95060.96
2019-01-02T00:35:42.031Z,95068.94
2019-01-02T00:38:09.545Z,95061.53
2019-01-02T00:40:37.151Z,95063.98
2019-01-02T00:43:04.649Z,95061.33
2019-01-02T00:45:32.108Z,95058.43
2019-01-02T00:47:59.525Z,95052.38
2019-01-02T00:50:27.254Z,95055.41
2019-01-02T00:52:54.741Z,95050.09
2019-01-02T00:55:22.235Z,95047.80
2019-01-02T00:57:49.895Z,95043.59
2019-01-02T01:00:38.355Z,95040.58
2019-01-02T01:05:46.169Z,95033.00
2019-01-02T01:08:13.851Z,95025.72
2019-01-02T01:10:43.608Z,95030.31
2019-01-02T01:13:11.308Z,95018.88
2019-01-02T01:15:39.361Z,95023.80
2019-01-02T01:18:06.942Z,95019.97
2019-01-02T01:20:36.368Z,95019.97
2019-01-02T01:23:03.841Z,95021.53
2019-01-02T01:25:33.214Z,95011.01
2019-01-02T01:28:01.129Z,95010.27
2019-01-02T01:30:29.048Z,95005.98
2019-01-02T01:32:56.696Z,95001.73
2019-01-02T01:35:24.175Z,94993.56
2019-01-02T01:37:55.113Z,94992.23
2019-01-02T01:40:22.828Z,94986.17
2019-01-02T01:42:50.358Z,94980.66
2019-01-02T01:45:19.731Z,94966.91
2019-01-02T01:47:47.276Z,94961.26
2019-01-02T01:50:15.355Z,94961.80
2019-01-02T01:52:42.853Z,94961.05
2019-01-02T01:55:10.367Z,94963.16
2019-01-02T01:57:38.167Z,94965.64
2019-01-02T02:00:27.085Z,94960.28
2019-01-02T02:05:34.937Z,94957.18
2019-01-02T02:08:02.433Z,94948.06
2019-01-02T02:10:29.919Z,94952.33
2019-01-02T02:12:59.341Z,94941.62
2019-01-02T02:15:26.861Z,94932.86
2019-01-02T02:17:56.281Z,94925.22
2019-01-02T02:20:24.018Z,94927.88
2019-01-02T02:22:51.463Z,94926.52
2019-01-02T02:25:20.401Z,94924.09
2019-01-02T02:27:47.860Z,94917.83
2019-01-02T02:30:15.864Z,94911.09
2019-01-02T02:32:44.502Z,94911.05
2019-01-02T02:35:13.946Z,94904.58
2019-01-02T02:37:41.425Z,94902.37
2019-01-02T02:40:10.130Z,94903.53
2019-01-02T02:42:37.622Z,94913.59
2019-01-02T02:45:08.538Z,94902.48
2019-01-02T02:47:36.369Z,94903.00
2019-01-02T02:50:05.032Z,94891.51
2019-01-02T02:52:32.481Z,94899.55
2019-01-02T02:54:59.958Z,94905.10
2019-01-02T02:57:27.419Z,94899.23
2019-01-02T02:59:54.790Z,94891.33
2019-01-02T03:02:22.320Z,94887.58
2019-01-02T03:04:49.797Z,94876.02
2019-01-02T03:07:19.176Z,94881.66
2019-01-02T03:09:46.917Z,94868.77
2019-01-02T03:12:14.592Z,94871.15
2019-01-02T03:14:42.150Z,94864.59
2019-01-02T03:17:09.679Z,94870.48
2019-01-02T03:19:37.456Z,94871.41
2019-01-02T03:22:17.981Z,94871.37
2019-01-02T03:24:45.971Z,94868.67
2019-01-02T03:27:13.627Z,94874.06
2019-01-02T03:29:41.112Z,94875.24
2019-01-02T03:32:08.629Z,94872.76
2019-01-02T03:34:36.316Z,94874.09
2019-01-02T03:37:04.013Z,94872.94
2019-01-02T03:39:31.407Z,94880.44
2019-01-02T03:41:58.859Z,94874.35
2019-01-02T03:44:26.474Z,94867.23
2019-01-02T03:46:53.956Z,94860.75
2019-01-02T03:49:21.409Z,94858.41
2019-01-02T03:51:48.859Z,94858.38
2019-01-02T03:54:16.292Z,94864.86
2019-01-02T03:56:43.785Z,94859.11
2019-01-02T03:59:11.222Z,94863.27
2019-01-02T04:01:38.622Z,94869.34
2019-01-02T04:04:06.056Z,94859.84
2019-01-02T04:06:33.514Z,94851.12
2019-01-02T04:09:00.948Z,94835.81
2019-01-02T04:11:28.411Z,94837.57
2019-01-02T04:13:55.874Z,94833.75
2019-01-02T04:16:23.424Z,94836.72
2019-01-02T04:18:50.880Z,94830.07
2019-01-02T04:21:18.365Z,94830.48
2019-01-02T04:23:45.866Z,94835.41
2019-01-02T04:26:13.425Z,94820.16
2019-01-02T04:28:40.807Z,94814.52
2019-01-02T04:31:08.387Z,94826.28
2019-01-02T04:33:35.842Z,94825.95
2019-01-02T04:36:03.273Z,94822.94
2019-01-02T04:38:30.744Z,94820.98
2019-01-02T04:40:58.247Z,94817.98
2019-01-02T04:43:25.672Z,94810.97
2019-01-02T04:45:53.205Z,94808.05
2019-01-02T04:48:20.659Z,94807.72
2019-01-02T04:50:48.163Z,94794.63
2019-01-02T04:53:15.581Z,94800.92
2019-01-02T04:55:43.120Z,94799.88
2019-01-02T04:58:11.030Z,94814.89
2019-01-02T05:00:38.739Z,94813.16
2019-01-02T05:03:06.278Z,94814.69
2019-01-02T05:05:33.722Z,94818.30
2019-01-02T05:08:01.147Z,94814.52
2019-01-02T05:10:28.622Z,94813.76
2019-01-02T05:12:56.102Z,94826.88
2019-01-02T05:15:23.620Z,94821.39
2019-01-02T05:17:51.191Z,94818.92
2019-01-02T05:20:18.677Z,94824.80
2019-01-02T05:22:46.211Z,94817.41
2019-01-02T05:25:13.724Z,94806.40
2019-01-02T05:27:41.240Z,94815.52
2019-01-02T05:30:11.559Z,94809.27
2019-01-02T05:32:38.985Z,94807.53
2019-01-02T05:35:07.414Z,94808.27
2019-01-02T05:37:34.883Z,94806.77
2019-01-02T05:40:02.340Z,94791.53
2019-01-02T05:42:29.900Z,94792.48
2019-01-02T05:45:16.788Z,94792.72
2019-01-02T05:50:24.990Z,94789.20
2019-01-02T05:52:53.136Z,94795.72
2019-01-02T05:55:20.651Z,94792.23
2019-01-02T05:57:48.126Z,94788.80
2019-01-02T06:03:01.449Z,94781.95
2019-01-02T06:05:29.334Z,94780.84
2019-01-02T06:07:57.117Z,94783.12
2019-01-02T06:10:24.558Z,94774.27
2019-01-02T06:12:52.145Z,94777.20
2019-01-02T06:15:19.708Z,94764.17
2019-01-02T06:17:47.582Z,94756.96
2019-01-02T06:20:16.784Z,94758.66
2019-01-02T06:22:44.404Z,94743.72
2019-01-02T06:25:11.934Z,94740.89
2019-01-02T06:27:39.469Z,94766.56
2019-01-02T06:30:29.480Z,94776.30
2019-01-02T06:32:57.301Z,94769.23
2019-01-02T06:35:24.820Z,94768.72
2019-01-02T06:37:52.652Z,94770.13
2019-01-02T06:40:20.335Z,94764.30
2019-01-02T06:42:47.976Z,94766.52
2019-01-02T06:45:17.546Z,94781.69
2019-01-02T06:47:45.303Z,94792.61
2019-01-02T06:50:16.225Z,94804.05
2019-01-02T06:52:43.703Z,94798.73
2019-01-02T06:55:11.174Z,94800.14
2019-01-02T06:57:38.650Z,94794.05
2019-01-02T07:00:09.937Z,94804.09
2019-01-02T07:02:37.507Z,94814.66
2019-01-02T07:05:05.917Z,94810.36
2019-01-02T07:07:33.427Z,94813.44
2019-01-02T07:10:01.212Z,94817.37
2019-01-02T07:12:28.803Z,94820.23
2019-01-02T07:14:56.377Z,94822.47
2019-01-02T07:17:23.853Z,94823.56
2019-01-02T07:19:51.314Z,94820.58
2019-01-02T07:22:19.079Z,94823.83
2019-01-02T07:24:48.930Z,94832.97
2019-01-02T07:27:16.612Z,94828.77
2019-01-02T07:29:44.312Z,94824.75
2019-01-02T07:32:12.078Z,94828.58
2019-01-02T07:35:18.763Z,94820.80
2019-01-02T07:38:24.984Z,94826.72
2019-01-02T07:41:31.403Z,94832.81
2019-01-02T07:44:37.728Z,94827.52
2019-01-02T07:47:44.329Z,94831.02
2019-01-02T07:50:50.692Z,94822.00
2019-01-02T07:53:57.004Z,94802.81
2019-01-02T07:57:03.332Z,94811.81
2019-01-02T08:00:09.852Z,94813.31
2019-01-02T08:03:02.260Z,94817.89
2019-01-02T08:06:08.592Z,94810.33
2019-01-02T08:09:16.303Z,94803.92
2019-01-02T08:12:22.857Z,94795.59
2019-01-02T08:15:27.006Z,94795.79
2019-01-02T08:18:34.920Z,94791.08
2019-01-02T08:22:05.787Z,94787.63
2019-01-02T08:25:04.804Z,94796.31
2019-01-02T08:28:35.618Z,94775.70
2019-01-02T08:31:47.861Z,94776.28
2019-01-02T08:34:53.477Z,94793.75
2019-01-02T08:38:08.509Z,94788.17
2019-01-02T08:41:02.226Z,94784.45
2019-01-02T08:44:08.164Z,94776.51
2019-01-02T08:47:14.710Z,94777.78
2019-01-02T08:50:12.573Z,94760.66
2019-01-02T08:53:10.069Z,94765.86
2019-01-02T08:56:12.838Z,94756.27
2019-01-02T08:59:18.731Z,94742.47
2019-01-02T09:02:36.102Z,94751.09
2019-01-02T09:05:42.595Z,94746.95
2019-01-02T09:08:46.687Z,94742.45
2019-01-02T09:11:51.533Z,94745.78
2019-01-02T09:14:56.884Z,94738.97
2019-01-02T09:18:21.382Z,94725.59
2019-01-02T09:21:20.876Z,94720.74
2019-01-02T09:24:33.632Z,94709.34
2019-01-02T09:27:46.850Z,94714.01
2019-01-02T09:30:47.209Z,94708.53
2019-01-02T09:33:36.881Z,94698.94
2019-01-02T09:36:48.684Z,94696.55
2019-01-02T09:39:36.576Z,94694.52
2019-01-02T09:42:27.656Z,94693.03
2019-01-02T09:45:46.152Z,94690.70
2019-01-02T09:49:10.103Z,94689.06
2019-01-02T09:52:23.260Z,94692.28
2019-01-02T09:55:15.677Z,94683.41
2019-01-02T09:58:35.529Z,94680.92
2019-01-02T10:01:24.498Z,94674.27
2019-01-02T10:04:32.470Z,94662.64
2019-01-02T10:07:38.594Z,94663.81
2019-01-02T10:10:56.575Z,94645.02
2019-01-02T10:14:10.632Z,94645.28
2019-01-02T10:17:14.341Z,94641.45
2019-01-02T10:20:19.417Z,94641.41
2019-01-02T10:23:13.056Z,94639.22
2019-01-02T10:25:57.713Z,94633.64
2019-01-02T10:29:09.211Z,94624.84
2019-01-02T10:32:24.476Z,94628.69
2019-01-02T10:35:11.841Z,94629.97
2019-01-02T10:38:13.066Z,94630.64
2019-01-02T10:41:24.675Z,94626.38
2019-01-02T10:44:29.919Z,94609.66
2019-01-02T10:47:36.576Z,94610.30
2019-01-02T10:50:41.491Z,94611.89
2019-01-02T10:53:38.522Z,94569.48
2019-01-02T10:56:39.083Z,94599.77
2019-01-02T10:59:31.228Z,94592.55
2019-01-02T11:02:21.519Z,94590.66
2019-01-02T11:05:25.942Z,94585.05
2019-01-02T11:08:46.542Z,94589.41
2019-01-02T11:11:58.442Z,94589.48
2019-01-02T11:14:57.615Z,94591.33
2019-01-02T11:17:54.429Z,94596.87
2019-01-02T11:20:59.729Z,94594.69
2019-01-02T11:24:18.028Z,94604.91
2019-01-02T11:27:25.597Z,94591.06
2019-01-02T11:30:55.918Z,94587.46
2019-01-02T11:34:09.137Z,94591.72
2019-01-02T11:37:19.988Z,94591.30
2019-01-02T11:40:15.951Z,94586.85
2019-01-02T11:43:11.625Z,94586.08
2019-01-02T11:45:40.126Z,94583.18
2019-01-02T11:48:08.117Z,94576.30
2019-01-02T11:50:35.964Z,94568.27
2019-01-02T11:53:04.055Z,94559.17
2019-01-02T11:55:31.975Z,94548.45
2019-01-02T11:57:59.972Z,94545.42
2019-01-02T12:00:28.056Z,94549.34
2019-01-02T12:02:56.072Z,94551.44
2019-01-02T12:05:24.180Z,94539.69
2019-01-02T12:07:53.258Z,94540.89
2019-01-02T12:10:21.791Z,94539.83
2019-01-02T12:12:49.761Z,94533.63
2019-01-02T12:15:17.555Z,94525.93
2019-01-02T12:17:45.479Z,94525.36
2019-01-02T12:20:13.337Z,94510.95
2019-01-02T12:22:41.071Z,94515.48
2019-01-02T12:25:08.504Z,94522.02
2019-01-02T12:27:37.028Z,94522.86
2019-01-02T12:30:08.600Z,94512.30
2019-01-02T12:32:39.761Z,94512.14
2019-01-02T12:35:07.829Z,94507.78
2019-01-02T12:37:35.816Z,94514.31
2019-01-02T12:40:03.923Z,94510.19
2019-01-02T12:42:31.868Z,94516.05
2019-01-02T12:44:59.829Z,94525.23
2019-01-02T12:47:33.023Z,94516.62
2019-01-02T12:50:12.154Z,94508.59
2019-01-02T12:52:39.902Z,94524.65
2019-01-02T12:55:07.655Z,94513.64
2019-01-02T12:57:35.125Z,94519.87
2019-01-02T13:03:42.664Z,94526.27
2019-01-02T13:06:49.051Z,94528.45
2019-01-02T13:09:55.306Z,94525.45
2019-01-02T13:12:49.249Z,94541.41
2019-01-02T13:15:49.433Z,94524.24
2019-01-02T13:18:55.681Z,94520.34
2019-01-02T13:21:46.710Z,94506.75
2019-01-02T13:24:53.872Z,94522.41
2019-01-02T13:28:02.670Z,94517.51
2019-01-02T13:31:10.841Z,94505.73
2019-01-02T13:34:18.462Z,94515.94
2019-01-02T13:37:24.745Z,94518.80
2019-01-02T13:40:31.535Z,94512.72
2019-01-02T13:43:25.193Z,94513.79
2019-01-02T13:46:31.422Z,94523.78
2019-01-02T13:49:38.056Z,94526.84
2019-01-02T13:52:05.606Z,94522.20
2019-01-02T13:54:33.920Z,94530.11
2019-01-02T13:57:03.418Z,94532.10
2019-01-02T13:59:30.872Z,94526.72
2019-01-02T14:01:59.430Z,94551.56
2019-01-02T14:07:06.982Z,94543.19
2019-01-02T14:09:34.901Z,94553.58
2019-01-02T14:12:02.892Z,94557.76
2019-01-02T14:14:30.520Z,94562.41
2019-01-02T14:16:57.902Z,94557.52
2019-01-02T14:19:25.535Z,94562.20
2019-01-02T14:21:53.115Z,94547.17
2019-01-02T14:24:20.598Z,94551.50
2019-01-02T14:26:48.172Z,94565.80
2019-01-02T14:29:15.611Z,94577.75
2019-01-02T14:31:43.236Z,94572.63
2019-01-02T14:34:10.672Z,94576.66
2019-01-02T14:36:38.326Z,94579.34
2019-01-02T14:39:07.053Z,94582.95
2019-01-02T14:41:34.495Z,94589.41
2019-01-02T14:44:23.180Z,94577.77
2019-01-02T14:46:51.007Z,94589.27
2019-01-02T14:49:18.639Z,94592.03
2019-01-02T14:51:46.132Z,94586.19
2019-01-02T14:54:13.730Z,94594.16
2019-01-02T14:56:41.320Z,94594.42
2019-01-02T14:59:08.888Z,94596.55
2019-01-02T15:01:36.802Z,94588.14
2019-01-02T15:04:04.565Z,94596.27
2019-01-02T15:06:32.246Z,94592.62
2019-01-02T15:08:59.845Z,94606.55
2019-01-02T15:11:27.366Z,94600.40
2019-01-02T15:13:55.275Z,94608.94
2019-01-02T15:16:23.151Z,94604.00
2019-01-02T15:18:50.634Z,94609.82
2019-01-02T15:21:18.166Z,94601.41
2019-01-02T15:23:46.099Z,94609.12
2019-01-02T15:26:13.835Z,94611.26
2019-01-02T15:28:41.849Z,94611.13
2019-01-02T15:31:10.056Z,94623.14
2019-01-02T15:33:37.596Z,94618.72
2019-01-02T15:36:05.156Z,94611.13
2019-01-02T15:38:32.960Z,94622.56
2019-01-02T15:41:00.690Z,94627.03
2019-01-02T15:43:28.245Z,94619.39
2019-01-02T15:45:56.341Z,94624.83
2019-01-02T15:48:23.899Z,94623.80
2019-01-02T15:50:51.340Z,94636.94
2019-01-02T15:53:18.746Z,94630.70
2019-01-02T15:55:46.375Z,94636.61
2019-01-02T15:58:13.888Z,94642.51
2019-01-02T16:00:41.561Z,94633.27
2019-01-02T16:03:09.204Z,94641.81
2019-01-02T16:05:36.911Z,94647.24
2019-01-02T16:08:04.310Z,94637.03
2019-01-02T16:10:32.916Z,94639.74
2019-01-02T16:13:00.367Z,94648.52
2019-01-02T16:15:27.776Z,94644.48
2019-01-02T16:17:55.890Z,94653.75
2019-01-02T16:20:23.374Z,94647.21
2019-01-02T16:22:50.922Z,94643.20
2019-01-02T16:25:20.527Z,94642.95
2019-01-02T16:27:47.916Z,94648.28
2019-01-02T16:30:15.589Z,94662.28
2019-01-02T16:32:43.070Z,94660.02
2019-01-02T16:35:10.795Z,94657.61
2019-01-02T16:37:38.539Z,94670.72
2019-01-02T16:40:09.157Z,94667.33
2019-01-02T16:42:50.592Z,94663.59
2019-01-02T16:45:18.300Z,94667.25
2019-01-02T16:47:46.042Z,94671.36
2019-01-02T16:50:13.772Z,94670.09
2019-01-02T16:52:41.795Z,94667.73
2019-01-02T16:55:09.392Z,94667.56
2019-01-02T16:57:37.004Z,94665.86
2019-01-02T17:00:06.296Z,94671.16
2019-01-02T17:02:34.048Z,94677.94
2019-01-02T17:05:01.663Z,94678.76
2019-01-02T17:07:29.359Z,94669.48
2019-01-02T17:09:56.845Z,94653.72
2019-01-02T17:12:24.328Z,94664.99
2019-01-02T17:14:51.762Z,94660.75
2019-01-02T17:17:19.141Z,94658.02
2019-01-02T17:19:46.585Z,94663.49
2019-01-02T17:22:14.190Z,94666.16
2019-01-02T17:24:44.797Z,94658.41
2019-01-02T17:27:12.378Z,94668.59
2019-01-02T17:29:39.955Z,94677.10
2019-01-02T17:32:07.599Z,94681.56
2019-01-02T17:34:35.712Z,94674.70
2019-01-02T17:37:03.985Z,94675.47
2019-01-02T17:39:44.132Z,94676.31
2019-01-02T17:42:12.035Z,94673.72
2019-01-02T17:44:39.491Z,94671.22
2019-01-02T17:47:07.035Z,94671.96
2019-01-02T17:49:34.809Z,94668.70
2019-01-02T17:52:02.736Z,94670.86
2019-01-02T17:54:30.332Z,94675.34
2019-01-02T17:56:57.860Z,94681.91
2019-01-02T17:59:25.329Z,94677.00
2019-01-02T18:01:53.115Z,94675.97
2019-01-02T18:04:20.811Z,94677.20
2019-01-02T18:06:48.431Z,94679.14
2019-01-02T18:09:16.038Z,94677.70
2019-01-02T18:11:52.858Z,94672.90
2019-01-02T18:14:20.784Z,94672.20
2019-01-02T18:17:08.218Z,94663.15
2019-01-02T18:19:37.259Z,94669.52
2019-01-02T18:22:05.028Z,94667.95
2019-01-02T18:24:32.672Z,94673.87
2019-01-02T18:27:00.474Z,94676.69
2019-01-02T18:29:28.384Z,94675.58
2019-01-02T18:31:56.173Z,94672.74
2019-01-02T18:37:06.504Z,94679.42
2019-01-02T18:39:53.825Z,94673.69
2019-01-02T18:42:22.921Z,94675.30
2019-01-02T18:44:50.532Z,94673.91
2019-01-02T18:47:18.787Z,94677.23
2019-01-02T18:49:46.203Z,94679.77
2019-01-02T18:52:13.766Z,94684.24
2019-01-02T18:54:41.276Z,94685.11
2019-01-02T18:57:08.849Z,94687.59
2019-01-02T18:59:36.532Z,94688.66
2019-01-02T19:02:04.236Z,94689.14
2019-01-02T19:04:32.362Z,94706.13
2019-01-02T19:07:00.188Z,94689.94
2019-01-02T19:09:28.492Z,94697.22
2019-01-02T19:11:56.086Z,94693.00
2019-01-02T19:14:23.577Z,94689.84
2019-01-02T19:16:51.085Z,94690.04
2019-01-02T19:19:18.629Z,94690.27
2019-01-02T19:21:46.203Z,94691.64
2019-01-02T19:24:13.674Z,94691.14
2019-01-02T19:26:41.223Z,94687.91
2019-01-02T19:29:08.815Z,94686.90
2019-01-02T19:31:36.298Z,94694.70
2019-01-02T19:34:03.896Z,94690.45
2019-01-02T19:36:31.310Z,94694.00
2019-01-02T19:38:58.819Z,94691.66
2019-01-02T19:41:26.405Z,94693.19
2019-01-02T19:44:05.443Z,94698.70
2019-01-02T19:46:33.138Z,94704.09
2019-01-02T19:49:00.776Z,94691.55
2019-01-02T19:51:28.255Z,94693.41
2019-01-02T19:53:55.755Z,94696.08
2019-01-02T19:56:23.499Z,94697.81
2019-01-02T19:58:50.950Z,94693.69
2019-01-02T20:01:18.569Z,94688.21
2019-01-02T20:03:46.022Z,94688.08
2019-01-02T20:06:13.573Z,94686.70
2019-01-02T20:08:41.182Z,94690.05
2019-01-02T20:11:08.746Z,94689.83
2019-01-02T20:13:36.307Z,94690.71
2019-01-02T20:16:04.105Z,94684.84
2019-01-02T20:18:31.769Z,94687.78
2019-01-02T20:20:59.343Z,94688.31
2019-01-02T20:23:26.829Z,94688.11
2019-01-02T20:25:54.497Z,94687.31
2019-01-02T20:28:22.009Z,94682.04
2019-01-02T20:30:49.468Z,94682.00
2019-01-02T20:33:16.998Z,94685.22
2019-01-02T20:35:44.553Z,94678.36
2019-01-02T20:38:12.498Z,94678.33
2019-01-02T20:40:40.092Z,94679.63
2019-01-02T20:43:07.606Z,94681.54
2019-01-02T20:45:35.307Z,94682.82
2019-01-02T20:48:14.226Z,94681.06
2019-01-02T20:50:42.039Z,94681.17
2019-01-02T20:53:09.597Z,94679.94
2019-01-02T20:55:37.260Z,94676.09
2019-01-02T20:58:04.848Z,94669.20
2019-01-02T21:00:32.304Z,94659.55
2019-01-02T21:02:59.750Z,94665.19
2019-01-02T21:05:27.260Z,94656.39
2019-01-02T21:07:54.914Z,94661.38
2019-01-02T21:10:22.690Z,94660.83
2019-01-02T21:12:50.186Z,94660.68
2019-01-02T21:15:17.913Z,94682.27
2019-01-02T21:17:45.430Z,94662.25
2019-01-02T21:20:12.940Z,94662.31
2019-01-02T21:22:40.602Z,94661.03
2019-01-02T21:25:08.799Z,94656.38
2019-01-02T21:27:36.410Z,94661.09
2019-01-02T21:30:25.429Z,94657.48
2019-01-02T21:32:53.501Z,94662.45
2019-01-02T21:35:20.964Z,94662.70
2019-01-02T21:37:48.561Z,94661.38
2019-01-02T21:40:16.378Z,94669.89
2019-01-02T21:42:44.056Z,94663.28
2019-01-02T21:47:58.019Z,94668.83
2019-01-02T21:50:25.939Z,94660.98
2019-01-02T21:52:53.517Z,94663.95
2019-01-02T21:55:21.073Z,94656.45
2019-01-02T21:57:48.566Z,94667.78
2019-01-02T22:00:16.342Z,94665.72
2019-01-02T22:02:43.864Z,94658.66
2019-01-02T22:05:11.622Z,94675.16
2019-01-02T22:07:39.174Z,94662.86
2019-01-02T22:10:07.296Z,94661.32
2019-01-02T22:12:34.874Z,94661.95
2019-01-02T22:15:02.487Z,94666.06
2019-01-02T22:17:30.016Z,94662.86
2019-01-02T22:19:57.605Z,94668.09
2019-01-02T22:22:25.151Z,94677.92
2019-01-02T22:24:52.621Z,94660.98
2019-01-02T22:27:21.038Z,94667.46
2019-01-02T22:29:50.197Z,94670.33
2019-01-02T22:32:17.767Z,94671.53
2019-01-02T22:34:45.393Z,94664.66
2019-01-02T22:37:13.001Z,94665.37
2019-01-02T22:39:40.541Z,94668.69
2019-01-02T22:42:08.066Z,94668.95
2019-01-02T22:44:35.695Z,94684.27
2019-01-02T22:47:03.485Z,94678.88
2019-01-02T22:52:11.959Z,94687.00
2019-01-02T22:54:39.472Z,94678.17
2019-01-02T22:57:07.043Z,94675.94
2019-01-02T22:59:34.591Z,94675.23
2019-01-02T23:02:07.798Z,94680.97
2019-01-02T23:04:54.784Z,94689.18
2019-01-02T23:07:41.872Z,94693.45
2019-01-02T23:10:28.940Z,94683.67
2019-01-02T23:13:15.991Z,94688.81
2019-01-02T23:16:03.615Z,94680.13
2019-01-02T23:18:43.863Z,94692.41
2019-01-02T23:21:31.607Z,94678.80
2019-01-02T23:24:20.550Z,94681.27
2019-01-02T23:27:07.564Z,94687.09
2019-01-02T23:29:54.569Z,94669.65
2019-01-02T23:32:41.706Z,94675.92
2019-01-02T23:35:28.843Z,94671.40
2019-01-02T23:38:15.963Z,94662.33
2019-01-02T23:41:03.006Z,94661.82
2019-01-02T23:43:50.127Z,94669.09
2019-01-02T23:46:37.385Z,94665.05
2019-01-02T23:49:24.503Z,94674.06
2019-01-02T23:52:03.914Z,94672.55
2019-01-02T23:54:51.075Z,94676.88
2019-01-02T23:57:38.235Z,94669.06
